Time;durP1;ratioP1;P1;durP2;ratioP2;P2;SDS_P1;SDS_P2;PMS_P1;PMS_P2;Temp;Humidity;BMP_temperature;BMP_pressure;BME280_temperature;BME280_humidity;BME280_pressure;Samples;Min_cycle;Max_cycle;Signal;HPM_P1;HPM_P2
2023/07/16 00:00:20;;;;;;;;;;;;;;;;;;4906363;29;19931;-83
2023/07/16 00:02:55;;;;;;;;;;;;;;;;;;4924306;29;20000;-83
2023/07/16 00:05:27;;;;;;;;;;;;;;;;;;4917946;29;19931;-83
2023/07/16 00:07:55;;;;;;;;;;;;;;;;;;4906464;29;20034;-82
2023/07/16 00:10:22;;;;;;;;;;;;;;;;;;4922482;29;19931;-84
2023/07/16 00:12:50;;;;;;;;;;;;;;;;;;4922675;29;19931;-82
2023/07/16 00:15:22;;;;;;;;;;;;;;;;;;4919276;29;19927;-83
2023/07/16 00:17:50;;;;;;;;;;;;;;;;;;4920733;29;19931;-83
2023/07/16 00:20:17;;;;;;;;;;;;;;;;;;4921497;29;19935;-84
2023/07/16 00:22:50;;;;;;;;;;;;;;;;;;4919837;29;19931;-83
2023/07/16 00:25:22;;;;;;;;;;;;;;;;;;4924011;29;19927;-82
2023/07/16 00:27:50;;;;;;;;;;;;;;;;;;4920603;29;19931;-84
2023/07/16 00:30:17;;;;;;;;;;;;;;;;;;4922398;29;19927;-84
2023/07/16 00:32:45;;;;;;;;;;;;;;;;;;4905249;29;19938;-84
2023/07/16 00:35:17;;;;;;;;;;;;;;;;;;4911606;29;19933;-84
2023/07/16 00:37:50;;;;;;;;;;;;;;;;;;4921251;29;19931;-84
2023/07/16 00:40:23;;;;;;;;;;;;;;;;;;4921380;29;19927;-83
2023/07/16 00:42:50;;;;;;;;;;;;;;;;;;4920732;29;19937;-83
2023/07/16 00:45:18;;;;;;;;;;;;;;;;;;4923145;29;19946;-83
2023/07/16 00:47:45;;;;;;;;;;;;;;;;;;4921557;29;19927;-83
2023/07/16 00:50:13;;;;;;;;;;;;;;;;;;4916212;29;20406;-83
2023/07/16 00:52:46;;;;;;;;;;;;;;;;;;4919289;29;19933;-83
2023/07/16 00:55:14;;;;;;;;;;;;;;;;;;4903055;29;19938;-84
2023/07/16 00:57:41;;;;;;;;;;;;;;;;;;4899884;29;20386;-83
2023/07/16 01:00:09;;;;;;;;;;;;;;;;;;4920932;29;20488;-83
2023/07/16 01:02:37;;;;;;;;;;;;;;;;;;4904899;29;19945;-84
2023/07/16 01:05:04;;;;;;;;;;;;;;;;;;4920938;29;20423;-83
2023/07/16 01:07:32;;;;;;;;;;;;;;;;;;4918477;29;19931;-83
2023/07/16 01:09:59;;;;;;;;;;;;;;;;;;4907448;29;19931;-83
2023/07/16 01:12:27;;;;;;;;;;;;;;;;;;4917890;29;19935;-83
2023/07/16 01:14:59;;;;;;;;;;;;;;;;;;4918430;29;19930;-83
2023/07/16 01:17:27;;;;;;;;;;;;;;;;;;4919503;29;19934;-83
2023/07/16 01:20:00;;;;;;;;;;;;;;;;;;4921597;29;19938;-83
2023/07/16 01:22:27;;;;;;;;;;;;;;;;;;4917747;29;19927;-83
2023/07/16 01:24:55;;;;;;;;;;;;;;;;;;4906020;29;19930;-82
2023/07/16 01:27:22;;;;;;;;;;;;;;;;;;4917691;29;19927;-82
2023/07/16 01:29:55;;;;;;;;;;;;;;;;;;4918165;29;19941;-83
2023/07/16 01:32:23;;;;;;;;;;;;;;;;;;4919135;29;19927;-83
2023/07/16 01:34:51;;;;;;;;;;;;;;;;;;4904074;29;19927;-84
2023/07/16 01:37:18;;;;;;;;;;;;;;;;;;4917990;29;19927;-83
2023/07/16 01:39:51;;;;;;;;;;;;;;;;;;4919793;29;19935;-84
2023/07/16 01:42:18;;;;;;;;;;;;;;;;;;4920501;29;19927;-83
2023/07/16 01:44:46;;;;;;;;;;;;;;;;;;4922957;29;19930;-83
2023/07/16 01:47:13;;;;;;;;;;;;;;;;;;4917816;29;19927;-83
2023/07/16 01:49:42;;;;;;;;;;;;;;;;;;4900617;29;20566;-83
2023/07/16 01:52:09;;;;;;;;;;;;;;;;;;4902909;29;20269;-83
2023/07/16 01:54:37;;;;;;;;;;;;;;;;;;4901309;29;19936;-83
2023/07/16 01:57:05;;;;;;;;;;;;;;;;;;4918539;29;20263;-83
2023/07/16 01:59:32;;;;;;;;;;;;;;;;;;4897994;29;19934;-83
2023/07/16 02:02:00;;;;;;;;;;;;;;;;;;4916800;29;20680;-82
2023/07/16 02:04:27;;;;;;;;;;;;;;;;;;4918741;29;19927;-83
2023/07/16 02:06:56;;;;;;;;;;;;;;;;;;4897603;29;19934;-83
2023/07/16 02:09:25;;;;;;;;;;;;;;;;;;4900440;29;19934;-82
2023/07/16 02:11:52;;;;;;;;;;;;;;;;;;4902778;29;19953;-82
2023/07/16 02:14:20;;;;;;;;;;;;;;;;;;4918887;29;19957;-82
2023/07/16 02:16:52;;;;;;;;;;;;;;;;;;4916351;29;20501;-81
2023/07/16 02:19:20;;;;;;;;;;;;;;;;;;4917638;29;20122;-82
2023/07/16 02:21:47;;;;;;;;;;;;;;;;;;4920791;29;20303;-82
2023/07/16 02:24:20;;;;;;;;;;;;;;;;;;4909646;29;19938;-81
2023/07/16 02:26:48;;;;;;;;;;;;;;;;;;4923763;29;19926;-82
2023/07/16 02:29:16;;;;;;;;;;;;;;;;;;4921628;29;19927;-82
2023/07/16 02:31:46;;;;;;;;;;;;;;;;;;4923525;29;19927;-82
2023/07/16 02:34:13;;;;;;;;;;;;;;;;;;4921622;29;20402;-82
2023/07/16 02:36:46;;;;;;;;;;;;;;;;;;4922591;29;19935;-82
2023/07/16 02:39:14;;;;;;;;;;;;;;;;;;4904290;29;19931;-82
2023/07/16 02:41:42;;;;;;;;;;;;;;;;;;4922843;29;19931;-82
2023/07/16 02:44:09;;;;;;;;;;;;;;;;;;4922130;29;20402;-82
2023/07/16 02:46:37;;;;;;;;;;;;;;;;;;4906144;29;19930;-83
2023/07/16 02:49:09;;;;;;;;;;;;;;;;;;4920877;29;19931;-83
2023/07/16 02:51:42;;;;;;;;;;;;;;;;;;4919352;29;20296;-83
2023/07/16 02:54:10;;;;;;;;;;;;;;;;;;4917963;29;19938;-83
2023/07/16 02:56:37;;;;;;;;;;;;;;;;;;4907410;29;19938;-83
2023/07/16 02:59:10;;;;;;;;;;;;;;;;;;4923675;29;19934;-83
2023/07/16 03:01:42;;;;;;;;;;;;;;;;;;4920463;29;19934;-83
2023/07/16 03:04:10;;;;;;;;;;;;;;;;;;4901084;29;19982;-83
2023/07/16 03:06:37;;;;;;;;;;;;;;;;;;4921918;29;19951;-82
2023/07/16 03:09:10;;;;;;;;;;;;;;;;;;4921342;29;19942;-82
2023/07/16 03:11:37;;;;;;;;;;;;;;;;;;4904522;29;19931;-83
2023/07/16 03:14:05;;;;;;;;;;;;;;;;;;4907168;29;19949;-83
2023/07/16 03:16:37;;;;;;;;;;;;;;;;;;4921479;29;19931;-83
2023/07/16 03:19:10;;;;;;;;;;;;;;;;;;4919316;29;19931;-82
2023/07/16 03:21:42;;;;;;;;;;;;;;;;;;4918030;29;20407;-83
2023/07/16 03:24:15;;;;;;;;;;;;;;;;;;4919806;29;19938;-82
2023/07/16 03:26:50;;;;;;;;;;;;;;;;;;4922968;29;19927;-82
2023/07/16 03:29:22;;;;;;;;;;;;;;;;;;4921047;29;19927;-82
2023/07/16 03:31:50;;;;;;;;;;;;;;;;;;4921789;29;20566;-83
2023/07/16 03:34:19;;;;;;;;;;;;;;;;;;4919326;29;19927;-82
2023/07/16 03:36:46;;;;;;;;;;;;;;;;;;4923502;29;20382;-81
2023/07/16 03:39:14;;;;;;;;;;;;;;;;;;4907506;29;19938;-82
2023/07/16 03:41:41;;;;;;;;;;;;;;;;;;4923419;29;19931;-82
2023/07/16 03:44:09;;;;;;;;;;;;;;;;;;4920354;29;19927;-82
2023/07/16 03:46:37;;;;;;;;;;;;;;;;;;4922244;29;19931;-82
2023/07/16 03:49:10;;;;;;;;;;;;;;;;;;4902631;29;19938;-82
2023/07/16 03:51:42;;;;;;;;;;;;;;;;;;4918705;29;20276;-81
2023/07/16 03:54:10;;;;;;;;;;;;;;;;;;4916127;29;19931;-82
2023/07/16 03:56:38;;;;;;;;;;;;;;;;;;4904934;29;19934;-82
2023/07/16 03:59:05;;;;;;;;;;;;;;;;;;4922791;29;19931;-82
2023/07/16 04:01:33;;;;;;;;;;;;;;;;;;4922034;29;19953;-82
2023/07/16 04:04:05;;;;;;;;;;;;;;;;;;4919791;29;19927;-82
2023/07/16 04:06:33;;;;;;;;;;;;;;;;;;4919213;29;19934;-82
2023/07/16 04:09:05;;;;;;;;;;;;;;;;;;4919273;29;20415;-82
2023/07/16 04:11:33;;;;;;;;;;;;;;;;;;4921032;29;19980;-82
2023/07/16 04:14:00;;;;;;;;;;;;;;;;;;4905358;29;19927;-82
2023/07/16 04:16:33;;;;;;;;;;;;;;;;;;4923043;29;20336;-82
2023/07/16 04:19:00;;;;;;;;;;;;;;;;;;4919384;29;20402;-82
2023/07/16 04:21:33;;;;;;;;;;;;;;;;;;4920706;29;19934;-82
2023/07/16 04:24:05;;;;;;;;;;;;;;;;;;4912900;29;19934;-82
2023/07/16 04:26:33;;;;;;;;;;;;;;;;;;4922899;29;20414;-83
2023/07/16 04:29:00;;;;;;;;;;;;;;;;;;4903170;29;19934;-83
2023/07/16 04:31:33;;;;;;;;;;;;;;;;;;4919208;29;20297;-83
2023/07/16 04:34:01;;;;;;;;;;;;;;;;;;4918757;29;19930;-83
2023/07/16 04:36:28;;;;;;;;;;;;;;;;;;4923347;29;19934;-83
2023/07/16 04:38:56;;;;;;;;;;;;;;;;;;4917541;29;19934;-82
2023/07/16 04:41:23;;;;;;;;;;;;;;;;;;4925249;29;19942;-83
2023/07/16 04:43:56;;;;;;;;;;;;;;;;;;4923794;29;19927;-84
2023/07/16 04:46:23;;;;;;;;;;;;;;;;;;4922354;29;20325;-84
2023/07/16 04:48:51;;;;;;;;;;;;;;;;;;4919177;29;20549;-84
2023/07/16 04:51:23;;;;;;;;;;;;;;;;;;4914915;29;19930;-84
2023/07/16 04:53:56;;;;;;;;;;;;;;;;;;4911405;29;19926;-84
2023/07/16 04:56:23;;;;;;;;;;;;;;;;;;4905977;29;19927;-84
2023/07/16 04:58:56;;;;;;;;;;;;;;;;;;4918026;29;19931;-83
2023/07/16 05:01:25;;;;;;;;;;;;;;;;;;4917595;29;20316;-84
2023/07/16 05:03:57;;;;;;;;;;;;;;;;;;4914914;29;19927;-83
2023/07/16 05:06:25;;;;;;;;;;;;;;;;;;4920275;29;19934;-84
2023/07/16 05:08:52;;;;;;;;;;;;;;;;;;4918742;29;19927;-83
2023/07/16 05:11:26;;;;;;;;;;;;;;;;;;4922817;29;19930;-84
2023/07/16 05:13:55;;;;;;;;;;;;;;;;;;4922258;29;19956;-84
2023/07/16 05:16:22;;;;;;;;;;;;;;;;;;4919500;29;19927;-84
2023/07/16 05:18:55;;;;;;;;;;;;;;;;;;4917772;29;19931;-85
2023/07/16 05:21:22;;;;;;;;;;;;;;;;;;4921501;29;20036;-85
2023/07/16 05:23:50;;;;;;;;;;;;;;;;;;4923200;29;19933;-86
2023/07/16 05:26:17;;;;;;;;;;;;;;;;;;4919743;29;20352;-85
2023/07/16 05:28:45;;;;;;;;;;;;;;;;;;4918133;29;20181;-84
2023/07/16 05:31:12;;;;;;;;;;;;;;;;;;4903406;29;19942;-85
2023/07/16 05:33:40;;;;;;;;;;;;;;;;;;4915952;29;19939;-85
2023/07/16 05:36:07;;;;;;;;;;;;;;;;;;4901352;29;19931;-84
2023/07/16 05:38:40;;;;;;;;;;;;;;;;;;4921007;29;19957;-85
2023/07/16 05:41:07;;;;;;;;;;;;;;;;;;4920116;29;20419;-85
2023/07/16 05:43:35;;;;;;;;;;;;;;;;;;4921633;29;19927;-84
2023/07/16 05:46:07;;;;;;;;;;;;;;;;;;4921392;29;19930;-82
2023/07/16 05:48:40;;;;;;;;;;;;;;;;;;4917966;29;20275;-84
2023/07/16 05:51:13;;;;;;;;;;;;;;;;;;4918437;29;19931;-83
2023/07/16 05:53:45;;;;;;;;;;;;;;;;;;4919460;29;19938;-83
2023/07/16 05:56:12;;;;;;;;;;;;;;;;;;4902929;29;20373;-83
2023/07/16 05:58:40;;;;;;;;;;;;;;;;;;4925439;29;19927;-82
2023/07/16 06:01:07;;;;;;;;;;;;;;;;;;4903217;29;19937;-82
2023/07/16 06:03:35;;;;;;;;;;;;;;;;;;4921306;29;19927;-82
2023/07/16 06:06:07;;;;;;;;;;;;;;;;;;4926970;29;20291;-82
2023/07/16 06:08:40;;;;;;;;;;;;;;;;;;4919187;29;19934;-82
2023/07/16 06:11:13;;;;;;;;;;;;;;;;;;4919705;29;19930;-83
2023/07/16 06:13:45;;;;;;;;;;;;;;;;;;4923984;29;19927;-82
2023/07/16 06:16:18;;;;;;;;;;;;;;;;;;4922056;29;19945;-81
2023/07/16 06:18:45;;;;;;;;;;;;;;;;;;4925333;29;19950;-82
2023/07/16 06:21:13;;;;;;;;;;;;;;;;;;4919716;29;19931;-82
2023/07/16 06:23:40;;;;;;;;;;;;;;;;;;4923748;29;20303;-81
2023/07/16 06:26:08;;;;;;;;;;;;;;;;;;4919402;29;20418;-82
2023/07/16 06:28:35;;;;;;;;;;;;;;;;;;4924939;29;19926;-83
2023/07/16 06:31:03;;;;;;;;;;;;;;;;;;4919986;29;19938;-82
2023/07/16 06:33:30;;;;;;;;;;;;;;;;;;4923397;29;19934;-83
2023/07/16 06:35:58;;;;;;;;;;;;;;;;;;4921173;29;19931;-82
2023/07/16 06:38:30;;;;;;;;;;;;;;;;;;4904808;29;19926;-82
2023/07/16 06:40:58;;;;;;;;;;;;;;;;;;4920132;29;19930;-83
2023/07/16 06:43:25;;;;;;;;;;;;;;;;;;4918452;29;19927;-83
2023/07/16 06:45:53;;;;;;;;;;;;;;;;;;4923634;29;19938;-83
2023/07/16 06:48:21;;;;;;;;;;;;;;;;;;4925677;29;19931;-83
2023/07/16 06:50:53;;;;;;;;;;;;;;;;;;4924339;29;19946;-82
2023/07/16 06:53:21;;;;;;;;;;;;;;;;;;4923060;29;19927;-84
2023/07/16 06:55:54;;;;;;;;;;;;;;;;;;4920135;29;19942;-83
2023/07/16 06:58:21;;;;;;;;;;;;;;;;;;4914310;29;19927;-83
2023/07/16 07:00:49;;;;;;;;;;;;;;;;;;4922960;29;20455;-83
2023/07/16 07:03:16;;;;;;;;;;;;;;;;;;4920742;29;19934;-82
2023/07/16 07:05:44;;;;;;;;;;;;;;;;;;4923334;29;19935;-84
2023/07/16 07:08:11;;;;;;;;;;;;;;;;;;4919180;29;20287;-85
2023/07/16 07:10:39;;;;;;;;;;;;;;;;;;4919938;29;19931;-83
2023/07/16 07:13:12;;;;;;;;;;;;;;;;;;4919941;29;19927;-82
2023/07/16 07:15:44;;;;;;;;;;;;;;;;;;4923754;29;19931;-85
2023/07/16 07:18:12;;;;;;;;;;;;;;;;;;4923200;29;19938;-83
2023/07/16 07:20:39;;;;;;;;;;;;;;;;;;4923882;29;19953;-82
2023/07/16 07:23:07;;;;;;;;;;;;;;;;;;4923988;29;19934;-82
2023/07/16 07:25:34;;;;;;;;;;;;;;;;;;4923128;29;20284;-82
2023/07/16 07:28:07;;;;;;;;;;;;;;;;;;4910323;29;19927;-81
2023/07/16 07:30:35;;;;;;;;;;;;;;;;;;4921729;29;19930;-83
2023/07/16 07:33:03;;;;;;;;;;;;;;;;;;4921670;29;19938;-82
2023/07/16 07:35:35;;;;;;;;;;;;;;;;;;4924211;29;19931;-83
2023/07/16 07:38:03;;;;;;;;;;;;;;;;;;4906250;29;19931;-84
2023/07/16 07:40:31;;;;;;;;;;;;;;;;;;4920502;29;19949;-83
2023/07/16 07:43:03;;;;;;;;;;;;;;;;;;4923077;29;19939;-80
2023/07/16 07:45:36;;;;;;;;;;;;;;;;;;4920973;29;19942;-82
2023/07/16 07:48:03;;;;;;;;;;;;;;;;;;4906128;29;19942;-82
2023/07/16 07:50:31;;;;;;;;;;;;;;;;;;4922167;29;19927;-81
2023/07/16 07:52:58;;;;;;;;;;;;;;;;;;4905106;29;19930;-82
2023/07/16 07:55:31;;;;;;;;;;;;;;;;;;4917685;29;19930;-83
2023/07/16 07:57:58;;;;;;;;;;;;;;;;;;4922651;29;19930;-82
2023/07/16 08:00:26;;;;;;;;;;;;;;;;;;4922762;29;19938;-84
2023/07/16 08:02:53;;;;;;;;;;;;;;;;;;4919564;29;19938;-81
2023/07/16 08:05:21;;;;;;;;;;;;;;;;;;4925968;29;19927;-84
2023/07/16 08:07:52;;;;;;;;;;;;;;;;;;4918673;29;19931;-78
2023/07/16 08:10:19;;;;;;;;;;;;;;;;;;4918333;29;19927;-82
2023/07/16 08:12:47;;;;;;;;;;;;;;;;;;4906273;29;19938;-81
2023/07/16 08:15:14;;;;;;;;;;;;;;;;;;4921156;29;19927;-81
2023/07/16 08:17:42;;;;;;;;;;;;;;;;;;4905600;29;19928;-83
2023/07/16 08:20:10;;;;;;;;;;;;;;;;;;4920421;29;19927;-81
2023/07/16 08:22:42;;;;;;;;;;;;;;;;;;4921653;29;19935;-80
2023/07/16 08:25:10;;;;;;;;;;;;;;;;;;4922881;29;19950;-85
2023/07/16 08:27:38;;;;;;;;;;;;;;;;;;4916638;29;19935;-84
2023/07/16 08:30:10;;;;;;;;;;;;;;;;;;4911953;29;19927;-83
2023/07/16 08:32:43;;;;;;;;;;;;;;;;;;4916332;29;19931;-84
2023/07/16 08:35:16;;;;;;;;;;;;;;;;;;4894116;29;19934;-83
2023/07/16 08:37:44;;;;;;;;;;;;;;;;;;4904442;29;20335;-83
2023/07/16 08:40:12;;;;;;;;;;;;;;;;;;4917626;29;19942;-81
2023/07/16 08:42:39;;;;;;;;;;;;;;;;;;4914894;29;20608;-80
2023/07/16 08:45:07;;;;;;;;;;;;;;;;;;4911363;29;19931;-84
2023/07/16 08:47:34;;;;;;;;;;;;;;;;;;4913560;29;20303;-84
2023/07/16 08:50:02;;;;;;;;;;;;;;;;;;4900914;29;19935;-83
2023/07/16 08:52:30;;;;;;;;;;;;;;;;;;4914888;29;20400;-82
2023/07/16 08:54:57;;;;;;;;;;;;;;;;;;4920491;29;20300;-80
2023/07/16 08:57:25;;;;;;;;;;;;;;;;;;4915368;29;20283;-81
2023/07/16 08:59:52;;;;;;;;;;;;;;;;;;4910111;29;19931;-81
2023/07/16 09:02:25;;;;;;;;;;;;;;;;;;4908923;29;19928;-81
2023/07/16 09:04:58;;;;;;;;;;;;;;;;;;4847258;29;1786512;-82
2023/07/16 09:07:25;;;;;;;;;;;;;;;;;;4899228;29;20322;-81
2023/07/16 09:09:53;;;;;;;;;;;;;;;;;;4915735;29;19935;-80
2023/07/16 09:12:20;;;;;;;;;;;;;;;;;;4913111;29;19927;-82
2023/07/16 09:14:48;;;;;;;;;;;;;;;;;;4906515;29;19931;-81
2023/07/16 09:17:20;;;;;;;;;;;;;;;;;;4909255;29;19935;-80
2023/07/16 09:19:48;;;;;;;;;;;;;;;;;;4907773;29;19931;-81
2023/07/16 09:22:15;;;;;;;;;;;;;;;;;;4914395;29;19931;-82
2023/07/16 09:24:43;;;;;;;;;;;;;;;;;;4906329;29;19966;-82
2023/07/16 09:27:10;;;;;;;;;;;;;;;;;;4919108;29;19927;-82
2023/07/16 09:29:43;;;;;;;;;;;;;;;;;;4905181;29;20372;-78
2023/07/16 09:32:12;;;;;;;;;;;;;;;;;;4920878;29;19927;-82
2023/07/16 09:34:39;;;;;;;;;;;;;;;;;;4900835;29;20380;-83
2023/07/16 09:37:07;;;;;;;;;;;;;;;;;;4913872;29;19934;-83
2023/07/16 09:39:34;;;;;;;;;;;;;;;;;;4911132;29;19931;-82
2023/07/16 09:42:02;;;;;;;;;;;;;;;;;;4907958;29;19937;-80
2023/07/16 09:44:29;;;;;;;;;;;;;;;;;;4915838;29;19927;-79
2023/07/16 09:46:57;;;;;;;;;;;;;;;;;;4917657;29;20331;-80
2023/07/16 09:49:25;;;;;;;;;;;;;;;;;;4912730;29;19927;-80
2023/07/16 09:51:57;;;;;;;;;;;;;;;;;;4913996;29;19934;-81
2023/07/16 09:54:25;;;;;;;;;;;;;;;;;;4923926;29;20356;-82
2023/07/16 09:56:52;;;;;;;;;;;;;;;;;;4923246;29;19931;-81
2023/07/16 09:59:25;;;;;;;;;;;;;;;;;;4917823;29;19935;-84
2023/07/16 10:01:53;;;;;;;;;;;;;;;;;;4915972;29;19942;-81
2023/07/16 10:04:20;;;;;;;;;;;;;;;;;;4917716;29;19931;-81
2023/07/16 10:06:48;;;;;;;;;;;;;;;;;;4901270;29;19927;-81
2023/07/16 10:09:15;;;;;;;;;;;;;;;;;;4919146;29;19933;-81
2023/07/16 10:11:48;;;;;;;;;;;;;;;;;;4901637;29;19935;-82
2023/07/16 10:14:21;;;;;;;;;;;;;;;;;;4920917;29;19949;-80
2023/07/16 10:16:49;;;;;;;;;;;;;;;;;;4921219;29;19938;-81
2023/07/16 10:19:22;;;;;;;;;;;;;;;;;;4923511;29;19934;-80
2023/07/16 10:21:54;;;;;;;;;;;;;;;;;;4917863;29;19930;-80
2023/07/16 10:24:22;;;;;;;;;;;;;;;;;;4920439;29;19926;-81
2023/07/16 10:26:49;;;;;;;;;;;;;;;;;;4913279;29;19935;-81
2023/07/16 10:29:17;;;;;;;;;;;;;;;;;;4916337;29;19927;-82
2023/07/16 10:31:49;;;;;;;;;;;;;;;;;;4916812;29;20168;-80
2023/07/16 10:34:18;;;;;;;;;;;;;;;;;;4896907;29;19935;-82
2023/07/16 10:36:45;;;;;;;;;;;;;;;;;;4909820;29;19978;-82
2023/07/16 10:39:13;;;;;;;;;;;;;;;;;;4917377;29;19931;-82
2023/07/16 10:41:40;;;;;;;;;;;;;;;;;;4875136;29;19974;-83
2023/07/16 10:44:08;;;;;;;;;;;;;;;;;;4907589;29;19942;-81
2023/07/16 10:46:36;;;;;;;;;;;;;;;;;;4893964;29;19950;-82
2023/07/16 10:49:03;;;;;;;;;;;;;;;;;;4891406;29;20427;-82
2023/07/16 10:51:31;;;;;;;;;;;;;;;;;;4891923;29;19931;-83
2023/07/16 10:53:58;;;;;;;;;;;;;;;;;;4886832;29;19934;-83
2023/07/16 10:56:26;;;;;;;;;;;;;;;;;;4887940;29;19935;-80
2023/07/16 10:58:53;;;;;;;;;;;;;;;;;;4882836;29;19931;-79
2023/07/16 11:01:26;;;;;;;;;;;;;;;;;;4884072;29;19942;-80
2023/07/16 11:03:53;;;;;;;;;;;;;;;;;;4886374;29;19935;-80
2023/07/16 11:06:21;;;;;;;;;;;;;;;;;;4861758;29;19934;-80
2023/07/16 11:08:48;;;;;;;;;;;;;;;;;;4888649;29;19935;-80
2023/07/16 11:11:16;;;;;;;;;;;;;;;;;;4871790;29;20621;-81
2023/07/16 11:13:48;;;;;;;;;;;;;;;;;;4881539;29;19943;-80
2023/07/16 11:16:16;;;;;;;;;;;;;;;;;;4884674;29;20299;-80
2023/07/16 11:18:48;;;;;;;;;;;;;;;;;;4879455;29;20160;-81
2023/07/16 11:21:16;;;;;;;;;;;;;;;;;;4884847;29;19935;-80
2023/07/16 11:23:44;;;;;;;;;;;;;;;;;;4881610;29;19936;-79
2023/07/16 11:26:16;;;;;;;;;;;;;;;;;;4880432;29;20021;-80
2023/07/16 11:28:49;;;;;;;;;;;;;;;;;;4878035;29;19931;-80
2023/07/16 11:31:16;;;;;;;;;;;;;;;;;;4888790;29;19942;-80
2023/07/16 11:33:44;;;;;;;;;;;;;;;;;;4913874;29;19935;-79
2023/07/16 11:36:12;;;;;;;;;;;;;;;;;;4919430;29;19926;-80
2023/07/16 11:38:39;;;;;;;;;;;;;;;;;;4918986;29;19927;-80
2023/07/16 11:41:07;;;;;;;;;;;;;;;;;;4912785;29;19935;-81
2023/07/16 11:43:34;;;;;;;;;;;;;;;;;;4917182;29;19931;-80
2023/07/16 11:46:07;;;;;;;;;;;;;;;;;;4918546;29;20418;-79
2023/07/16 11:48:34;;;;;;;;;;;;;;;;;;4918764;29;19931;-80
2023/07/16 11:51:07;;;;;;;;;;;;;;;;;;4915659;29;20411;-80
2023/07/16 11:53:34;;;;;;;;;;;;;;;;;;4916701;29;19931;-81
2023/07/16 11:56:02;;;;;;;;;;;;;;;;;;4917794;29;19934;-80
2023/07/16 11:58:30;;;;;;;;;;;;;;;;;;4916710;29;19935;-81
2023/07/16 12:01:03;;;;;;;;;;;;;;;;;;4915350;29;20267;-81
2023/07/16 12:03:35;;;;;;;;;;;;;;;;;;4919452;29;19938;-80
2023/07/16 12:06:03;;;;;;;;;;;;;;;;;;4920816;29;19926;-79
2023/07/16 12:08:35;;;;;;;;;;;;;;;;;;4922050;29;19931;-79
2023/07/16 12:11:03;;;;;;;;;;;;;;;;;;4917614;29;19927;-80
2023/07/16 12:13:35;;;;;;;;;;;;;;;;;;4916116;29;19931;-79
2023/07/16 12:16:03;;;;;;;;;;;;;;;;;;4918236;29;19935;-79
2023/07/16 12:18:35;;;;;;;;;;;;;;;;;;4920292;29;19931;-81
2023/07/16 12:21:03;;;;;;;;;;;;;;;;;;4917356;29;20292;-81
2023/07/16 12:23:35;;;;;;;;;;;;;;;;;;4900415;29;19930;-81
2023/07/16 12:26:03;;;;;;;;;;;;;;;;;;4916401;29;19938;-81
2023/07/16 12:28:30;;;;;;;;;;;;;;;;;;4915511;29;19931;-81
2023/07/16 12:30:58;;;;;;;;;;;;;;;;;;4914685;29;20313;-80
2023/07/16 12:33:25;;;;;;;;;;;;;;;;;;4915188;29;19947;-82
2023/07/16 12:35:53;;;;;;;;;;;;;;;;;;4917972;29;19931;-81
2023/07/16 12:38:22;;;;;;;;;;;;;;;;;;4914164;29;19954;-80
2023/07/16 12:40:54;;;;;;;;;;;;;;;;;;4916530;29;20292;-81
2023/07/16 12:43:22;;;;;;;;;;;;;;;;;;4900338;29;20375;-80
2023/07/16 12:45:49;;;;;;;;;;;;;;;;;;4904481;29;19931;-82
2023/07/16 12:48:17;;;;;;;;;;;;;;;;;;4919623;29;20397;-82
2023/07/16 12:50:45;;;;;;;;;;;;;;;;;;4917301;29;20451;-81
2023/07/16 12:53:12;;;;;;;;;;;;;;;;;;4900566;29;19935;-81
2023/07/16 12:55:40;;;;;;;;;;;;;;;;;;4870493;29;19935;-79
2023/07/16 12:58:13;;;;;;;;;;;;;;;;;;4866595;29;19935;-80
2023/07/16 13:00:40;;;;;;;;;;;;;;;;;;4878246;29;20260;-80
2023/07/16 13:03:11;;;;;;;;;;;;;;;;;;4875240;29;19935;-80
2023/07/16 13:05:38;;;;;;;;;;;;;;;;;;4878156;29;19935;-79
2023/07/16 13:08:06;;;;;;;;;;;;;;;;;;4880117;29;19942;-80
2023/07/16 13:10:33;;;;;;;;;;;;;;;;;;4884803;29;20395;-80
2023/07/16 13:13:03;;;;;;;;;;;;;;;;;;4876674;29;19942;-80
2023/07/16 13:15:35;;;;;;;;;;;;;;;;;;4894520;29;19944;-80
2023/07/16 13:18:08;;;;;;;;;;;;;;;;;;4882909;29;19935;-79
2023/07/16 13:20:35;;;;;;;;;;;;;;;;;;4874854;29;19935;-80
2023/07/16 13:23:03;;;;;;;;;;;;;;;;;;4873491;29;19935;-80
2023/07/16 13:25:31;;;;;;;;;;;;;;;;;;4881117;29;19936;-80
2023/07/16 13:27:58;;;;;;;;;;;;;;;;;;4886488;29;20319;-80
2023/07/16 13:30:26;;;;;;;;;;;;;;;;;;4880968;29;20438;-80
2023/07/16 13:32:55;;;;;;;;;;;;;;;;;;4876443;29;19939;-80
2023/07/16 13:35:23;;;;;;;;;;;;;;;;;;4866341;29;20291;-80
2023/07/16 13:37:50;;;;;;;;;;;;;;;;;;4887636;29;19942;-81
2023/07/16 13:40:23;;;;;;;;;;;;;;;;;;4873907;29;19935;-80
2023/07/16 13:42:55;;;;;;;;;;;;;;;;;;4884350;29;19934;-80
2023/07/16 13:45:28;;;;;;;;;;;;;;;;;;4880105;29;20592;-81
2023/07/16 13:47:55;;;;;;;;;;;;;;;;;;4884662;29;19942;-81
2023/07/16 13:50:23;;;;;;;;;;;;;;;;;;4891821;29;19935;-80
2023/07/16 13:52:50;;;;;;;;;;;;;;;;;;4887587;29;19931;-78
2023/07/16 13:55:18;;;;;;;;;;;;;;;;;;4882858;29;20512;-81
2023/07/16 13:57:46;;;;;;;;;;;;;;;;;;4863792;29;21294;-79
2023/07/16 14:00:15;;;;;;;;;;;;;;;;;;4881846;29;20407;-80
2023/07/16 14:02:43;;;;;;;;;;;;;;;;;;4884107;29;19931;-81
2023/07/16 14:05:10;;;;;;;;;;;;;;;;;;4888109;29;19935;-81
2023/07/16 14:07:38;;;;;;;;;;;;;;;;;;4874313;29;20303;-79
2023/07/16 14:10:05;;;;;;;;;;;;;;;;;;4879855;29;19936;-80
2023/07/16 14:12:34;;;;;;;;;;;;;;;;;;4873864;29;19935;-84
2023/07/16 14:15:01;;;;;;;;;;;;;;;;;;4880572;29;19942;-80
2023/07/16 14:17:35;;;;;;;;;;;;;;;;;;4878532;29;19938;-82
2023/07/16 14:20:09;;;;;;;;;;;;;;;;;;4884059;29;20008;-82
2023/07/16 14:22:37;;;;;;;;;;;;;;;;;;4882213;29;19942;-81
2023/07/16 14:25:05;;;;;;;;;;;;;;;;;;4877834;29;20345;-80
2023/07/16 14:27:32;;;;;;;;;;;;;;;;;;4880828;29;19935;-80
2023/07/16 14:30:00;;;;;;;;;;;;;;;;;;4894398;29;19946;-80
2023/07/16 14:32:28;;;;;;;;;;;;;;;;;;4868302;29;19967;-80
2023/07/16 14:35:01;;;;;;;;;;;;;;;;;;4884011;29;19931;-80
2023/07/16 14:37:29;;;;;;;;;;;;;;;;;;4882879;29;21137;-81
2023/07/16 14:39:56;;;;;;;;;;;;;;;;;;4888601;29;19935;-81
2023/07/16 14:42:24;;;;;;;;;;;;;;;;;;4874845;29;20359;-82
2023/07/16 14:44:51;;;;;;;;;;;;;;;;;;4878281;29;20761;-80
2023/07/16 14:47:24;;;;;;;;;;;;;;;;;;4878982;29;19936;-81
2023/07/16 14:49:57;;;;;;;;;;;;;;;;;;4876121;29;20299;-80
2023/07/16 14:52:29;;;;;;;;;;;;;;;;;;4881010;29;19935;-79
2023/07/16 14:55:04;;;;;;;;;;;;;;;;;;4875334;29;19943;-80
2023/07/16 14:57:36;;;;;;;;;;;;;;;;;;4876893;29;19935;-79
2023/07/16 15:00:05;;;;;;;;;;;;;;;;;;4876514;29;19935;-79
2023/07/16 15:02:33;;;;;;;;;;;;;;;;;;4882417;29;19939;-79
2023/07/16 15:05:00;;;;;;;;;;;;;;;;;;4889299;29;19928;-82
2023/07/16 15:07:34;;;;;;;;;;;;;;;;;;4919786;29;19926;-82
2023/07/16 15:10:01;;;;;;;;;;;;;;;;;;4919225;29;20383;-82
2023/07/16 15:12:34;;;;;;;;;;;;;;;;;;4919825;29;19946;-84
2023/07/16 15:15:01;;;;;;;;;;;;;;;;;;4902733;29;19931;-82
2023/07/16 15:17:29;;;;;;;;;;;;;;;;;;4916349;29;19942;-83
2023/07/16 15:19:56;;;;;;;;;;;;;;;;;;4919469;29;19931;-81
2023/07/16 15:22:29;;;;;;;;;;;;;;;;;;4920438;29;20666;-84
2023/07/16 15:24:57;;;;;;;;;;;;;;;;;;4918534;29;19931;-83
2023/07/16 15:27:24;;;;;;;;;;;;;;;;;;4922103;29;19927;-81
2023/07/16 15:29:52;;;;;;;;;;;;;;;;;;4918556;29;19938;-83
2023/07/16 15:32:24;;;;;;;;;;;;;;;;;;4919811;29;19938;-83
2023/07/16 15:34:57;;;;;;;;;;;;;;;;;;4917616;29;19932;-82
2023/07/16 15:37:25;;;;;;;;;;;;;;;;;;4900824;29;19934;-82
2023/07/16 15:39:58;;;;;;;;;;;;;;;;;;4921391;29;19938;-84
2023/07/16 15:42:31;;;;;;;;;;;;;;;;;;4920634;29;20295;-83
2023/07/16 15:45:06;;;;;;;;;;;;;;;;;;4917935;29;19935;-82
2023/07/16 15:47:33;;;;;;;;;;;;;;;;;;4914393;29;19941;-82
2023/07/16 15:50:01;;;;;;;;;;;;;;;;;;4902164;29;20419;-83
2023/07/16 15:52:28;;;;;;;;;;;;;;;;;;4918104;29;19935;-83
2023/07/16 15:55:01;;;;;;;;;;;;;;;;;;4918254;29;19938;-82
2023/07/16 15:57:28;;;;;;;;;;;;;;;;;;4902761;29;19934;-82
2023/07/16 15:59:56;;;;;;;;;;;;;;;;;;4916874;29;19927;-82
2023/07/16 16:02:38;;;;;;;;;;;;;;;;;;4923115;29;19935;-84
2023/07/16 16:05:10;;;;;;;;;;;;;;;;;;4917027;29;19927;-83
2023/07/16 16:07:38;;;;;;;;;;;;;;;;;;4920068;29;20384;-84
2023/07/16 16:10:05;;;;;;;;;;;;;;;;;;4917182;29;19939;-82
2023/07/16 16:12:33;;;;;;;;;;;;;;;;;;4909604;29;19938;-83
2023/07/16 16:15:00;;;;;;;;;;;;;;;;;;4915363;29;19927;-82
2023/07/16 16:17:28;;;;;;;;;;;;;;;;;;4919168;29;19937;-82
2023/07/16 16:19:55;;;;;;;;;;;;;;;;;;4912382;29;20459;-84
2023/07/16 16:22:23;;;;;;;;;;;;;;;;;;4916187;29;19931;-84
2023/07/16 16:24:50;;;;;;;;;;;;;;;;;;4916596;29;20376;-82
2023/07/16 16:27:23;;;;;;;;;;;;;;;;;;4911867;29;19935;-83
2023/07/16 16:29:56;;;;;;;;;;;;;;;;;;4917037;29;19931;-83
2023/07/16 16:32:23;;;;;;;;;;;;;;;;;;4918311;29;20344;-83
2023/07/16 16:34:51;;;;;;;;;;;;;;;;;;4918171;29;19926;-85
2023/07/16 16:37:18;;;;;;;;;;;;;;;;;;4914493;29;20300;-82
2023/07/16 16:39:53;;;;;;;;;;;;;;;;;;4916516;29;19927;-84
2023/07/16 16:42:26;;;;;;;;;;;;;;;;;;4913406;29;19937;-83
2023/07/16 16:44:53;;;;;;;;;;;;;;;;;;4919732;29;19947;-83
2023/07/16 16:47:26;;;;;;;;;;;;;;;;;;4898323;29;19938;-84
2023/07/16 16:49:58;;;;;;;;;;;;;;;;;;4915309;29;19942;-83
2023/07/16 16:52:31;;;;;;;;;;;;;;;;;;4916699;29;20312;-82
2023/07/16 16:54:58;;;;;;;;;;;;;;;;;;4919237;29;19931;-83
2023/07/16 16:57:26;;;;;;;;;;;;;;;;;;4914448;29;19946;-82